Wellsburg, Iowa
Current Conditions -  °F | °C
As of 7:55 PM on Monday 24 Nov 2014 (Local Time) from KIFA Reporting Station
Light Snow Light Snow  
Wind Chill:   Ceiling: 2300
Heat Index: 21°   Visibility: 3mi
Dew Point: 17°   Wind: 21mph
Humidity: 85%   Direction: 300°WNW
Pressure: 29.84"   Gusts: 26mph
Location:  42.46°N, 92.94°W
Report Text: KIFA 250155Z AUTO 30018G23KT 3SM -SN SCT016 BKN023 OVC028 M06/M08 A2984 RMK AO2 T10611083
Loading
Personal Weather Stations






























Interactive Weather Map New forecast layout! Learn more

10-Day Weather Forecast

Advertisements
Track Severe Weather on mobile